Time;durP1;ratioP1;P1;durP2;ratioP2;P2;SDS_P1;SDS_P2;PMS_P1;PMS_P2;Temp;Humidity;BMP_temperature;BMP_pressure;BME280_temperature;BME280_humidity;BME280_pressure;Samples;Min_cycle;Max_cycle;Signal;HPM_P1;HPM_P2
2022/10/04 00:01:44;;;;;;;;;;;;;;;20.90;nan;95366.09;5558534;28;1484;-66
2022/10/04 00:04:29;;;;;;;;;;;;;;;20.91;nan;95367.72;5587009;28;1756;-67
2022/10/04 00:07:16;;;;;;;;;;;;;;;20.91;nan;95368.56;5564833;28;1747;-66
2022/10/04 00:10:03;;;;;;;;;;;;;;;20.91;nan;95373.06;5566862;28;1686;-67
2022/10/04 00:12:48;;;;;;;;;;;;;;;20.93;nan;95381.72;5568112;28;1902;-68
2022/10/04 00:15:31;;;;;;;;;;;;;;;20.90;nan;95371.44;5565304;28;1805;-67
2022/10/04 00:18:21;;;;;;;;;;;;;;;20.91;nan;95379.25;5559718;28;1619;-67
2022/10/04 00:21:04;;;;;;;;;;;;;;;20.92;nan;95374.75;5574356;28;1981;-67
2022/10/04 00:23:47;;;;;;;;;;;;;;;20.91;nan;95373.91;5576630;28;1642;-67
2022/10/04 00:26:54;;;;;;;;;;;;;;;20.91;nan;95373.91;5576131;28;1667;-67
2022/10/04 00:29:40;;;;;;;;;;;;;;;20.90;nan;95364.25;5563667;28;1706;-67
2022/10/04 00:32:25;;;;;;;;;;;;;;;20.91;nan;95367.72;5579209;28;1750;-67
2022/10/04 00:35:39;;;;;;;;;;;;;;;20.91;nan;95362.41;5575817;28;1724;-67
2022/10/04 00:38:27;;;;;;;;;;;;;;;20.90;nan;95350.88;5571232;28;1472;-67
2022/10/04 00:41:12;;;;;;;;;;;;;;;20.90;nan;95350.88;5583257;28;1902;-67
2022/10/04 00:43:57;;;;;;;;;;;;;;;20.91;nan;95352.53;5577660;28;1695;-67
2022/10/04 00:46:41;;;;;;;;;;;;;;;20.91;nan;95346.38;5572576;28;1766;-67
2022/10/04 00:49:26;;;;;;;;;;;;;;;20.91;nan;95341.03;5586285;28;1690;-68
2022/10/04 00:52:13;;;;;;;;;;;;;;;20.91;nan;95339.16;5582792;28;1721;-73
2022/10/04 00:55:00;;;;;;;;;;;;;;;20.92;nan;95326.66;5563726;28;1706;-67
2022/10/04 00:57:45;;;;;;;;;;;;;;;20.91;nan;95330.34;5577652;28;1779;-67
2022/10/04 01:00:30;;;;;;;;;;;;;;;20.92;nan;95327.47;5577376;28;1910;-75
2022/10/04 01:03:15;;;;;;;;;;;;;;;20.91;nan;95328.47;5574346;28;1515;-68
2022/10/04 01:06:00;;;;;;;;;;;;;;;20.93;nan;95338.97;5584525;28;1703;-69
2022/10/04 01:08:46;;;;;;;;;;;;;;;20.93;nan;95338.97;5575722;28;1683;-69
2022/10/04 01:11:31;;;;;;;;;;;;;;;20.91;nan;95336.50;5600253;28;1549;-68
2022/10/04 01:14:19;;;;;;;;;;;;;;;-144.57;nan;95332.00;5590418;28;1527;-69
2022/10/04 01:17:03;;;;;;;;;;;;;;;20.91;nan;95341.03;5587929;28;1724;-68
2022/10/04 01:19:53;;;;;;;;;;;;;;;20.93;nan;95330.97;5565611;28;1981;-69
2022/10/04 01:22:41;;;;;;;;;;;;;;;20.91;nan;95341.84;5582672;28;1782;-67
2022/10/04 01:25:42;;;;;;;;;;;;;;;20.91;nan;95341.84;5578438;28;1684;-68
2022/10/04 01:28:26;;;;;;;;;;;;;;;20.93;nan;95329.09;5582492;28;1554;-74
2022/10/04 01:31:09;;;;;;;;;;;;;;;20.94;nan;95329.94;5557265;28;1756;-68
2022/10/04 01:33:52;;;;;;;;;;;;;;;20.95;nan;95336.94;5564508;28;1633;-68
2022/10/04 01:36:35;;;;;;;;;;;;;;;20.94;nan;95335.28;5568244;28;1528;-68
2022/10/04 01:39:21;;;;;;;;;;;;;;;-144.57;nan;95331.59;5580484;28;1481;-68
2022/10/04 01:42:07;;;;;;;;;;;;;;;20.94;nan;95330.78;5582506;28;1963;-67
2022/10/04 01:44:55;;;;;;;;;;;;;;;20.94;nan;95329.94;5579774;28;1660;-67
2022/10/04 01:47:41;;;;;;;;;;;;;;;20.94;nan;95330.78;5586911;28;1713;-67
2022/10/04 01:50:27;;;;;;;;;;;;;;;20.93;nan;95322.94;5567826;28;1574;-67
2022/10/04 01:53:13;;;;;;;;;;;;;;;20.94;nan;95329.94;5568103;28;1737;-67
2022/10/04 01:56:04;;;;;;;;;;;;;;;20.94;nan;95325.44;5579445;28;1738;-79
2022/10/04 01:58:48;;;;;;;;;;;;;;;20.94;nan;95329.94;5567962;28;1701;-68
2022/10/04 02:01:34;;;;;;;;;;;;;;;20.94;nan;95329.94;5572226;28;1977;-68
2022/10/04 02:04:19;;;;;;;;;;;;;;;20.93;nan;95339.78;5567819;28;1667;-68
2022/10/04 02:07:10;;;;;;;;;;;;;;;20.94;nan;95335.28;5558961;28;1456;-67
2022/10/04 02:09:58;;;;;;;;;;;;;;;20.93;nan;95339.78;5564072;28;1654;-67
2022/10/04 02:12:44;;;;;;;;;;;;;;;20.94;nan;95346.81;5585705;28;1787;-66
2022/10/04 02:15:27;;;;;;;;;;;;;;;20.92;nan;95348.84;5587877;28;1714;-66
2022/10/04 02:18:12;;;;;;;;;;;;;;;20.93;nan;95344.31;5575851;28;1672;-67
2022/10/04 02:20:55;;;;;;;;;;;;;;;20.93;nan;95349.66;5571578;28;1942;-67
2022/10/04 02:23:39;;;;;;;;;;;;;;;20.93;nan;95355.00;5580733;28;1713;-66
2022/10/04 02:26:22;;;;;;;;;;;;;;;20.93;nan;95357.69;5582432;28;1736;-67
2022/10/04 02:29:06;;;;;;;;;;;;;;;20.93;nan;95349.66;5566435;28;1686;-66
2022/10/04 02:34:51;;;;;;;;;;;;;;;20.93;nan;95355.00;5564407;28;1783;-67
2022/10/04 02:37:34;;;;;;;;;;;;;;;20.94;nan;95353.97;5589507;28;1579;-66
2022/10/04 02:40:18;;;;;;;;;;;;;;;20.95;nan;95358.31;5555013;28;1914;-66
2022/10/04 02:43:03;;;;;;;;;;;;;;;20.95;nan;95374.34;5589296;28;1744;-66
2022/10/04 02:45:50;;;;;;;;;;;;;;;20.95;nan;95374.34;5573856;28;1719;-67
2022/10/04 02:48:37;;;;;;;;;;;;;;;20.95;nan;95385.00;5563695;28;1569;-67
2022/10/04 02:51:24;;;;;;;;;;;;;;;20.95;nan;95372.47;5562806;28;1647;-68
2022/10/04 02:54:11;;;;;;;;;;;;;;;-144.57;nan;95379.66;5564029;28;1923;-67
2022/10/04 02:56:55;;;;;;;;;;;;;;;-144.57;nan;95376.78;5586200;28;1585;-70
2022/10/04 02:59:39;;;;;;;;;;;;;;;20.96;nan;95381.31;5589980;28;1746;-68
2022/10/04 03:02:25;;;;;;;;;;;;;;;20.95;nan;95385.00;5575687;28;1983;-68
2022/10/04 03:05:13;;;;;;;;;;;;;;;20.97;nan;95382.94;5587016;28;1775;-68
2022/10/04 03:07:56;;;;;;;;;;;;;;;20.95;nan;95379.66;5582091;28;1702;-69
2022/10/04 03:10:41;;;;;;;;;;;;;;;20.97;nan;95398.97;5585885;28;1013;-68
2022/10/04 03:13:24;;;;;;;;;;;;;;;20.96;nan;95392.81;5580795;28;1715;-69
2022/10/04 03:16:08;;;;;;;;;;;;;;;20.95;nan;95390.34;5571688;28;1455;-68
2022/10/04 03:18:53;;;;;;;;;;;;;;;20.96;nan;95397.34;5566285;28;1558;-68
2022/10/04 03:21:39;;;;;;;;;;;;;;;20.96;nan;95408.84;5575003;28;1909;-68
2022/10/04 03:24:24;;;;;;;;;;;;;;;20.96;nan;95408.03;5579998;28;1812;-68
2022/10/04 03:27:08;;;;;;;;;;;;;;;20.97;nan;95399.81;5566073;28;1553;-67
2022/10/04 03:29:51;;;;;;;;;;;;;;;20.96;nan;95408.03;5564106;28;1678;-69
2022/10/04 03:32:40;;;;;;;;;;;;;;;20.96;nan;95402.69;5567337;28;1652;-67
2022/10/04 03:35:28;;;;;;;;;;;;;;;20.95;nan;95406.38;5579333;28;1461;-68
2022/10/04 03:38:12;;;;;;;;;;;;;;;20.96;nan;95414.19;5577877;28;1705;-67
2022/10/04 03:40:56;;;;;;;;;;;;;;;20.96;nan;95414.19;5576366;28;1922;-68
2022/10/04 03:43:42;;;;;;;;;;;;;;;20.95;nan;95433.09;5588600;28;1543;-67
2022/10/04 03:46:27;;;;;;;;;;;;;;;20.94;nan;95410.91;5563395;28;1682;-68
2022/10/04 03:49:12;;;;;;;;;;;;;;;20.95;nan;95417.06;5567628;28;1685;-68
2022/10/04 03:51:57;;;;;;;;;;;;;;;20.95;nan;95417.06;5583670;28;1608;-68
2022/10/04 03:54:40;;;;;;;;;;;;;;;20.96;nan;95414.19;5589723;28;1641;-67
2022/10/04 03:57:23;;;;;;;;;;;;;;;20.97;nan;95415.00;5590658;28;1670;-67
2022/10/04 04:00:06;;;;;;;;;;;;;;;20.96;nan;95408.03;5561861;28;1699;-67
2022/10/04 04:02:51;;;;;;;;;;;;;;;20.95;nan;95411.72;5572800;28;1976;-66
2022/10/04 04:05:37;;;;;;;;;;;;;;;20.96;nan;95413.38;5570351;28;1691;-66
2022/10/04 04:08:25;;;;;;;;;;;;;;;20.95;nan;95411.72;5569965;28;1738;-66
2022/10/04 04:11:17;;;;;;;;;;;;;;;20.94;nan;95415.41;5563046;28;1668;-66
2022/10/04 04:14:03;;;;;;;;;;;;;;;20.95;nan;95417.06;5585527;28;1670;-66
2022/10/04 04:16:45;;;;;;;;;;;;;;;20.94;nan;95420.75;5578152;28;1655;-66
2022/10/04 04:19:29;;;;;;;;;;;;;;;20.95;nan;95422.41;5587619;28;1763;-66
2022/10/04 04:22:15;;;;;;;;;;;;;;;20.94;nan;95428.75;5563499;28;1997;-67
2022/10/04 04:25:01;;;;;;;;;;;;;;;20.94;nan;95426.94;5591375;28;1829;-70
2022/10/04 04:27:47;;;;;;;;;;;;;;;20.94;nan;95431.44;5588189;28;1556;-66
2022/10/04 04:30:30;;;;;;;;;;;;;;;20.95;nan;95438.44;5588045;28;1706;-65
2022/10/04 04:33:18;;;;;;;;;;;;;;;20.95;nan;95435.78;5562765;28;1563;-65
2022/10/04 04:36:04;;;;;;;;;;;;;;;20.93;nan;95446.66;5575879;28;1777;-66
2022/10/04 04:41:48;;;;;;;;;;;;;;;20.94;nan;95448.31;5575666;28;1971;-67
2022/10/04 04:44:32;;;;;;;;;;;;;;;-144.57;nan;95436.78;5563088;28;1663;-66
2022/10/04 04:47:22;;;;;;;;;;;;;;;20.94;nan;95442.13;5571582;28;1730;-66
2022/10/04 04:50:06;;;;;;;;;;;;;;;20.94;nan;95442.13;5583629;28;1706;-66
2022/10/04 04:52:52;;;;;;;;;;;;;;;20.93;nan;95457.34;5584152;28;1551;-68
2022/10/04 04:55:38;;;;;;;;;;;;;;;-144.57;nan;95458.16;5586538;28;1731;-68
2022/10/04 04:58:44;;;;;;;;;;;;;;;20.94;nan;95452.81;5583678;28;1803;-67
2022/10/04 05:01:31;;;;;;;;;;;;;;;20.94;nan;95458.16;5583836;28;1901;-67
2022/10/04 05:04:18;;;;;;;;;;;;;;;20.94;nan;95452.81;5591411;28;1573;-66
2022/10/04 05:07:02;;;;;;;;;;;;;;;20.93;nan;95451.16;5563704;28;1778;-66
2022/10/04 05:09:45;;;;;;;;;;;;;;;20.94;nan;95458.16;5579793;28;1680;-66
2022/10/04 05:12:28;;;;;;;;;;;;;;;20.95;nan;95454.47;5587193;28;1679;-67
2022/10/04 05:15:12;;;;;;;;;;;;;;;-145.88;nan;95459.81;5580070;28;1686;-67
2022/10/04 05:17:58;;;;;;;;;;;;;;;20.94;nan;95459.00;5580338;28;1759;-71
2022/10/04 05:20:43;;;;;;;;;;;;;;;20.95;nan;95454.47;5569727;28;1772;-67
2022/10/04 05:23:26;;;;;;;;;;;;;;;20.95;nan;95454.47;5593161;28;1921;-67
2022/10/04 05:26:13;;;;;;;;;;;;;;;20.96;nan;95467.59;5589720;28;1602;-70
2022/10/04 05:28:59;;;;;;;;;;;;;;;20.43;nan;95461.28;5587227;28;1605;-68
2022/10/04 05:31:48;;;;;;;;;;;;;;;19.79;nan;95465.88;5555918;28;1499;-65
2022/10/04 05:34:32;;;;;;;;;;;;;;;19.65;nan;95469.47;5589740;28;1726;-63
2022/10/04 05:37:34;;;;;;;;;;;;;;;19.71;nan;95474.03;5578550;28;1758;-64
2022/10/04 05:40:25;;;;;;;;;;;;;;;19.61;nan;95473.56;5563368;28;1053;-64
2022/10/04 05:43:22;;;;;;;;;;;;;;;19.73;nan;95472.00;5566554;28;1984;-64
2022/10/04 05:46:13;;;;;;;;;;;;;;;19.40;nan;95480.53;5582515;28;1726;-65
2022/10/04 05:48:59;;;;;;;;;;;;;;;19.30;nan;95488.03;5581661;28;851;-64
2022/10/04 05:51:48;;;;;;;;;;;;;;;19.17;nan;95498.56;5574349;28;1001;-64
2022/10/04 05:54:34;;;;;;;;;;;;;;;19.31;nan;95504.84;5585823;28;1522;-65
2022/10/04 05:57:26;;;;;;;;;;;;;;;19.31;nan;95495.00;5584796;28;1531;-65
2022/10/04 06:00:12;;;;;;;;;;;;;;;19.28;nan;95494.56;5583830;28;1749;-65
2022/10/04 06:03:09;;;;;;;;;;;;;;;19.54;nan;95499.31;5592804;28;1996;-65
2022/10/04 06:05:55;;;;;;;;;;;;;;;19.66;nan;95508.44;5586802;28;1495;-65
2022/10/04 06:08:43;;;;;;;;;;;;;;;19.87;nan;95510.25;5584873;28;1194;-63
2022/10/04 06:11:34;;;;;;;;;;;;;;;19.57;nan;95518.41;5584945;28;1549;-66
2022/10/04 06:14:32;;;;;;;;;;;;;;;19.52;nan;95518.16;5600109;28;1768;-65
2022/10/04 06:17:24;;;;;;;;;;;;;;;19.48;nan;95527.53;5558740;28;1012;-66
2022/10/04 06:20:28;;;;;;;;;;;;;;;19.65;nan;95523.59;5573844;28;1842;-65
2022/10/04 06:23:15;;;;;;;;;;;;;;;19.50;nan;95524.69;5579530;28;1914;-65
2022/10/04 06:25:59;;;;;;;;;;;;;;;19.52;nan;95533.31;5584803;28;1652;-66
2022/10/04 06:28:45;;;;;;;;;;;;;;;19.66;nan;95546.59;5581503;28;2030;-70
2022/10/04 06:31:46;;;;;;;;;;;;;;;19.56;nan;95539.94;5581812;28;1903;-65
2022/10/04 06:34:38;;;;;;;;;;;;;;;19.23;nan;95545.75;5581441;28;1494;-65
2022/10/04 06:37:32;;;;;;;;;;;;;;;18.93;nan;95535.22;5573921;28;1681;-63
2022/10/04 06:40:33;;;;;;;;;;;;;;;19.11;nan;95542.78;5574659;28;1630;-64
2022/10/04 06:43:26;;;;;;;;;;;;;;;18.93;nan;95540.53;5607428;28;1913;-64
2022/10/04 06:46:15;;;;;;;;;;;;;;;18.89;nan;95539.25;5605315;28;1068;-65
2022/10/04 06:49:21;;;;;;;;;;;;;;;18.75;nan;95548.09;5605495;28;1189;-64
2022/10/04 06:52:14;;;;;;;;;;;;;;;18.70;nan;95546.03;5607298;28;1433;-65
2022/10/04 06:55:09;;;;;;;;;;;;;;;18.75;nan;95538.31;5606890;28;1097;-64
2022/10/04 06:57:59;;;;;;;;;;;;;;;18.91;nan;95547.06;5605870;28;1120;-65
2022/10/04 07:00:49;;;;;;;;;;;;;;;19.11;nan;95548.09;5601055;28;1308;-65
2022/10/04 07:03:35;;;;;;;;;;;;;;;19.21;nan;95553.13;5606821;28;1902;-65
2022/10/04 07:06:21;;;;;;;;;;;;;;;19.22;nan;95549.44;5606014;28;1016;-65
2022/10/04 07:09:06;;;;;;;;;;;;;;;19.20;nan;95552.28;5608956;28;981;-67
2022/10/04 07:11:53;;;;;;;;;;;;;;;19.02;nan;95559.91;5601144;28;1190;-66
2022/10/04 07:14:38;;;;;;;;;;;;;;;18.98;nan;95554.13;5603181;28;1155;-65
2022/10/04 07:17:24;;;;;;;;;;;;;;;18.96;nan;95556.16;5611150;28;1184;-65
2022/10/04 07:20:14;;;;;;;;;;;;;;;18.93;nan;95572.50;5606864;28;1056;-66
2022/10/04 07:22:59;;;;;;;;;;;;;;;18.89;nan;95555.22;5602777;28;1985;-66
2022/10/04 07:25:44;;;;;;;;;;;;;;;18.89;nan;95568.53;5605911;28;1175;-65
2022/10/04 07:31:31;;;;;;;;;;;;;;;18.82;nan;95580.97;5604812;28;1017;-65
2022/10/04 07:34:17;;;;;;;;;;;;;;;18.97;nan;95583.59;5606562;28;1332;-65
2022/10/04 07:37:02;;;;;;;;;;;;;;;19.06;nan;95581.63;5601456;28;1173;-66
2022/10/04 07:39:51;;;;;;;;;;;;;;;18.97;nan;95579.09;5607212;28;1152;-67
2022/10/04 07:42:38;;;;;;;;;;;;;;;18.91;nan;95579.03;5610060;28;1913;-65
2022/10/04 07:45:23;;;;;;;;;;;;;;;18.80;nan;95576.84;5601596;28;1348;-66
2022/10/04 07:48:16;;;;;;;;;;;;;;;18.76;nan;95579.06;5603160;28;1103;-66
2022/10/04 07:51:08;;;;;;;;;;;;;;;18.84;nan;95586.94;5611230;28;1060;-66
2022/10/04 07:53:53;;;;;;;;;;;;;;;18.74;nan;95584.56;5605969;28;690;-66
2022/10/04 07:56:39;;;;;;;;;;;;;;;18.65;nan;95584.81;5604554;28;1111;-69
2022/10/04 07:59:33;;;;;;;;;;;;;;;18.66;nan;95591.81;5603475;28;1080;-65
2022/10/04 08:02:21;;;;;;;;;;;;;;;18.66;nan;95591.81;5606382;28;1008;-65
2022/10/04 08:05:16;;;;;;;;;;;;;;;18.55;nan;95591.25;5603530;28;1922;-66
2022/10/04 08:08:08;;;;;;;;;;;;;;;18.55;nan;95601.91;5610465;28;1112;-65
2022/10/04 08:10:55;;;;;;;;;;;;;;;18.60;nan;95597.84;5604682;28;1138;-71
2022/10/04 08:13:44;;;;;;;;;;;;;;;18.45;nan;95585.38;5606188;28;1141;-65
2022/10/04 08:16:34;;;;;;;;;;;;;;;18.43;nan;95592.72;5606358;28;1063;-65
2022/10/04 08:19:25;;;;;;;;;;;;;;;18.48;nan;95590.34;5609197;28;1256;-65
2022/10/04 08:22:14;;;;;;;;;;;;;;;-144.57;nan;95590.06;5598244;28;1143;-65
2022/10/04 08:25:03;;;;;;;;;;;;;;;18.64;nan;95593.84;5608981;28;1918;-66
2022/10/04 08:31:08;;;;;;;;;;;;;;;18.91;nan;95584.34;5604028;28;1148;-66
2022/10/04 08:33:59;;;;;;;;;;;;;;;18.99;nan;95582.41;5601048;28;1232;-65
2022/10/04 08:36:47;;;;;;;;;;;;;;;19.09;nan;95582.09;5582275;28;1025;-65
2022/10/04 08:39:39;;;;;;;;;;;;;;;-144.57;nan;95577.13;5586956;28;736;-65
2022/10/04 08:42:40;;;;;;;;;;;;;;;19.18;nan;95575.66;5579651;28;1170;-66
2022/10/04 08:45:34;;;;;;;;;;;;;;;19.31;nan;95564.28;5581963;28;1981;-66
2022/10/04 08:48:43;;;;;;;;;;;;;;;19.35;nan;95570.91;5586895;28;998;-65
2022/10/04 08:51:44;;;;;;;;;;;;;;;19.38;nan;95569.69;5587085;28;724;-65
2022/10/04 08:54:45;;;;;;;;;;;;;;;-144.57;nan;95562.78;5577578;28;1426;-66
2022/10/04 08:57:47;;;;;;;;;;;;;;;19.53;nan;95562.47;5560115;28;1132;-66
2022/10/04 09:00:38;;;;;;;;;;;;;;;19.61;nan;95574.84;5590473;28;1029;-70
2022/10/04 09:03:45;;;;;;;;;;;;;;;19.65;nan;95562.78;5587141;28;1902;-65
2022/10/04 09:06:36;;;;;;;;;;;;;;;19.74;nan;95574.13;5562546;28;1512;-65
2022/10/04 09:09:39;;;;;;;;;;;;;;;19.78;nan;95565.56;5587189;28;997;-66
2022/10/04 09:12:35;;;;;;;;;;;;;;;19.82;nan;95571.34;5587139;28;1001;-66
2022/10/04 09:15:26;;;;;;;;;;;;;;;19.83;nan;95562.31;5590143;28;1176;-65
2022/10/04 09:18:21;;;;;;;;;;;;;;;19.86;nan;95561.91;5578872;28;1345;-65
2022/10/04 09:21:09;;;;;;;;;;;;;;;19.91;nan;95569.34;5586416;28;1084;-65
2022/10/04 09:24:12;;;;;;;;;;;;;;;19.92;nan;95577.16;5588126;28;1913;-65
2022/10/04 09:26:59;;;;;;;;;;;;;;;19.95;nan;95575.97;5590448;28;1080;-65
2022/10/04 09:29:54;;;;;;;;;;;;;;;19.93;nan;95583.31;5579870;28;1318;-65
2022/10/04 09:32:45;;;;;;;;;;;;;;;19.84;nan;95591.47;5586317;28;1186;-65
2022/10/04 09:35:41;;;;;;;;;;;;;;;19.83;nan;95583.63;5597394;28;1183;-65
2022/10/04 09:38:45;;;;;;;;;;;;;;;19.85;nan;95581.59;5612066;28;1167;-65
2022/10/04 09:41:43;;;;;;;;;;;;;;;-144.57;nan;95583.31;5599549;28;1364;-65
2022/10/04 09:44:44;;;;;;;;;;;;;;;19.92;nan;95581.66;5607244;28;1913;-65
2022/10/04 09:47:36;;;;;;;;;;;;;;;19.94;nan;95590.28;5608636;28;994;-65
2022/10/04 09:50:38;;;;;;;;;;;;;;;20.00;nan;95573.50;5604101;28;978;-65
2022/10/04 09:53:32;;;;;;;;;;;;;;;20.05;nan;95581.75;5601785;28;1223;-66
2022/10/04 09:56:33;;;;;;;;;;;;;;;20.07;nan;95569.06;5610943;28;1108;-65
2022/10/04 09:59:35;;;;;;;;;;;;;;;20.10;nan;95579.34;5611135;28;1001;-65
2022/10/04 10:02:35;;;;;;;;;;;;;;;20.11;nan;95575.63;5604710;28;1153;-65
2022/10/04 10:05:38;;;;;;;;;;;;;;;20.15;nan;95576.91;5564754;28;1985;-65
2022/10/04 10:08:26;;;;;;;;;;;;;;;20.13;nan;95578.13;5607181;28;981;-65
2022/10/04 10:14:39;;;;;;;;;;;;;;;20.04;nan;95574.78;5602114;28;1065;-65
2022/10/04 10:17:36;;;;;;;;;;;;;;;-144.57;nan;95572.72;5612177;28;1092;-65
2022/10/04 10:20:37;;;;;;;;;;;;;;;20.12;nan;95577.31;5611442;28;1112;-65
2022/10/04 10:23:47;;;;;;;;;;;;;;;20.13;nan;95584.28;5611951;28;1168;-65
2022/10/04 10:26:38;;;;;;;;;;;;;;;20.08;nan;95586.72;5601939;28;1393;-65
2022/10/04 10:29:38;;;;;;;;;;;;;;;20.08;nan;95586.72;5607015;28;993;-65
2022/10/04 10:32:39;;;;;;;;;;;;;;;20.14;nan;95591.25;5607016;28;1305;-65
2022/10/04 10:35:28;;;;;;;;;;;;;;;20.10;nan;95595.34;5605516;28;1207;-65
2022/10/04 10:38:28;;;;;;;;;;;;;;;20.03;nan;95589.97;5601383;28;1292;-65
2022/10/04 10:41:34;;;;;;;;;;;;;;;19.93;nan;95588.66;5611778;28;815;-65
2022/10/04 10:44:33;;;;;;;;;;;;;;;19.89;nan;95589.03;5608379;28;1977;-64
2022/10/04 10:47:32;;;;;;;;;;;;;;;19.91;nan;95601.34;5601967;28;1163;-64
2022/10/04 10:50:29;;;;;;;;;;;;;;;19.85;nan;95597.59;5602313;28;1361;-66
2022/10/04 10:53:20;;;;;;;;;;;;;;;19.83;nan;95595.16;5591284;28;1266;-67
2022/10/04 10:56:24;;;;;;;;;;;;;;;19.78;nan;95597.56;5610755;28;1095;-66
2022/10/04 10:59:26;;;;;;;;;;;;;;;19.75;nan;95600.63;5597641;28;1012;-66
2022/10/04 11:02:25;;;;;;;;;;;;;;;19.73;nan;95599.16;5604346;28;1376;-66
2022/10/04 11:05:37;;;;;;;;;;;;;;;19.74;nan;95585.63;5609369;28;2009;-66
2022/10/04 11:08:34;;;;;;;;;;;;;;;-144.57;nan;95582.78;5605663;28;1037;-66
2022/10/04 11:11:40;;;;;;;;;;;;;;;19.73;nan;95589.31;5596994;28;1205;-66
2022/10/04 11:14:35;;;;;;;;;;;;;;;19.69;nan;95593.41;5605882;28;1295;-66
2022/10/04 11:17:26;;;;;;;;;;;;;;;19.76;nan;95588.09;5610545;28;1028;-66
2022/10/04 11:20:26;;;;;;;;;;;;;;;19.83;nan;95588.97;5609657;28;1002;-66
2022/10/04 11:23:28;;;;;;;;;;;;;;;19.86;nan;95578.75;5597886;28;1453;-66
2022/10/04 11:26:24;;;;;;;;;;;;;;;19.83;nan;95588.97;5606175;28;1933;-66
2022/10/04 11:29:15;;;;;;;;;;;;;;;19.79;nan;95588.53;5604829;28;1036;-66
2022/10/04 11:32:11;;;;;;;;;;;;;;;19.78;nan;95608.22;5610619;28;1230;-66
2022/10/04 11:35:13;;;;;;;;;;;;;;;19.78;nan;95591.41;5599909;28;1226;-66
2022/10/04 11:38:03;;;;;;;;;;;;;;;19.78;nan;95596.75;5608081;28;870;-66
2022/10/04 11:41:02;;;;;;;;;;;;;;;19.77;nan;95595.91;5603162;28;1184;-66
2022/10/04 11:44:02;;;;;;;;;;;;;;;19.79;nan;95599.19;5605097;28;1183;-66
2022/10/04 11:46:48;;;;;;;;;;;;;;;19.81;nan;95602.50;5604454;28;1905;-66
2022/10/04 11:49:39;;;;;;;;;;;;;;;19.78;nan;95596.75;5605508;28;1064;-66
2022/10/04 11:52:49;;;;;;;;;;;;;;;19.73;nan;95599.97;5605909;28;784;-66
2022/10/04 11:55:52;;;;;;;;;;;;;;;19.75;nan;95591.78;5553541;28;1188;-67
2022/10/04 11:58:42;;;;;;;;;;;;;;;19.79;nan;95593.88;5603731;28;969;-66
2022/10/04 12:01:40;;;;;;;;;;;;;;;19.77;nan;95590.56;5608661;28;993;-66
2022/10/04 12:04:37;;;;;;;;;;;;;;;19.72;nan;95593.00;5610048;28;989;-65
2022/10/04 12:07:27;;;;;;;;;;;;;;;19.74;nan;95601.63;5580735;28;1517;-66
2022/10/04 12:10:17;;;;;;;;;;;;;;;19.69;nan;95590.72;5603630;28;1169;-66
2022/10/04 12:13:21;;;;;;;;;;;;;;;19.76;nan;95598.78;5609536;28;989;-66
2022/10/04 12:16:28;;;;;;;;;;;;;;;19.76;nan;95593.44;5603645;28;1108;-66
2022/10/04 12:19:32;;;;;;;;;;;;;;;19.72;nan;95587.66;5604106;28;1156;-66
2022/10/04 12:22:33;;;;;;;;;;;;;;;19.74;nan;95596.28;5605719;28;1067;-66
2022/10/04 12:25:33;;;;;;;;;;;;;;;19.74;nan;95590.13;5610585;28;1910;-66
2022/10/04 12:28:25;;;;;;;;;;;;;;;19.73;nan;95593.81;5609422;28;1084;-65
2022/10/04 12:31:15;;;;;;;;;;;;;;;19.72;nan;95593.00;5598173;28;1083;-66
2022/10/04 12:34:05;;;;;;;;;;;;;;;19.69;nan;95598.72;5613389;28;1358;-66
2022/10/04 12:36:59;;;;;;;;;;;;;;;19.67;nan;95595.41;5586986;28;1044;-65
2022/10/04 12:39:50;;;;;;;;;;;;;;;19.63;nan;95594.13;5587689;28;1030;-66
2022/10/04 12:42:38;;;;;;;;;;;;;;;19.62;nan;95592.50;5579701;28;1276;-66
2022/10/04 12:45:33;;;;;;;;;;;;;;;19.63;nan;95584.31;5590852;28;1906;-66
2022/10/04 12:48:22;;;;;;;;;;;;;;;19.63;nan;95594.13;5587071;28;1020;-66
2022/10/04 12:51:15;;;;;;;;;;;;;;;19.64;nan;95601.94;5589952;28;942;-70
2022/10/04 12:54:01;;;;;;;;;;;;;;;19.67;nan;95590.91;5582025;28;1348;-65
2022/10/04 12:56:49;;;;;;;;;;;;;;;19.69;nan;95592.53;5586417;28;926;-66
2022/10/04 12:59:48;;;;;;;;;;;;;;;19.67;nan;95590.91;5587535;28;993;-66
2022/10/04 13:02:40;;;;;;;;;;;;;;;19.66;nan;95588.41;5590285;28;1068;-65
2022/10/04 13:05:26;;;;;;;;;;;;;;;19.66;nan;95593.75;5581290;28;1914;-65
2022/10/04 13:08:27;;;;;;;;;;;;;;;19.63;nan;95594.97;5586490;28;1029;-65
2022/10/04 13:11:19;;;;;;;;;;;;;;;19.61;nan;95596.19;5576947;28;930;-65
2022/10/04 13:14:13;;;;;;;;;;;;;;;19.59;nan;95593.69;5590673;28;1260;-65
2022/10/04 13:17:02;;;;;;;;;;;;;;;19.60;nan;95583.84;5581109;28;1147;-64
2022/10/04 13:20:19;;;;;;;;;;;;;;;19.55;nan;95586.25;5589721;28;1290;-65
2022/10/04 13:23:07;;;;;;;;;;;;;;;19.53;nan;95583.81;5587701;28;1020;-65
2022/10/04 13:26:02;;;;;;;;;;;;;;;19.54;nan;95585.44;5586451;28;1886;-65
2022/10/04 13:28:50;;;;;;;;;;;;;;;19.49;nan;95577.19;5584133;28;1205;-65
2022/10/04 13:31:35;;;;;;;;;;;;;;;19.43;nan;95589.44;5586685;28;1120;-65
2022/10/04 13:34:26;;;;;;;;;;;;;;;19.47;nan;95589.06;5587394;28;1326;-65
2022/10/04 13:37:26;;;;;;;;;;;;;;;19.41;nan;95596.78;5611223;28;1154;-65
2022/10/04 13:40:22;;;;;;;;;;;;;;;19.42;nan;95592.28;5606988;28;1082;-66
2022/10/04 13:43:16;;;;;;;;;;;;;;;19.41;nan;95601.28;5608077;28;830;-66
2022/10/04 13:46:05;;;;;;;;;;;;;;;19.36;nan;95603.69;5606070;28;1886;-66
2022/10/04 13:48:56;;;;;;;;;;;;;;;19.31;nan;95611.44;5607372;28;1025;-66
2022/10/04 13:51:43;;;;;;;;;;;;;;;19.28;nan;95606.47;5607413;28;1061;-66
2022/10/04 13:57:40;;;;;;;;;;;;;;;19.26;nan;95619.97;5584431;28;1162;-67
2022/10/04 14:00:35;;;;;;;;;;;;;;;19.27;nan;95616.31;5583335;28;1244;-66
2022/10/04 14:03:26;;;;;;;;;;;;;;;19.38;nan;95612.34;5582727;28;1393;-64
2022/10/04 14:06:29;;;;;;;;;;;;;;;19.38;nan;95623.00;5583702;28;1890;-64
2022/10/04 14:09:33;;;;;;;;;;;;;;;19.29;nan;95624.97;5580956;28;999;-64
2022/10/04 14:12:31;;;;;;;;;;;;;;;19.20;nan;95620.72;5568915;28;1358;-65
2022/10/04 14:15:47;;;;;;;;;;;;;;;19.24;nan;95626.53;5586672;28;1262;-65
2022/10/04 14:18:45;;;;;;;;;;;;;;;19.15;nan;95628.47;5490730;28;1145;-65
2022/10/04 14:21:44;;;;;;;;;;;;;;;19.09;nan;95629.22;5497886;28;990;-65
2022/10/04 14:24:51;;;;;;;;;;;;;;;19.10;nan;95646.84;5567963;28;1414;-65
2022/10/04 14:27:58;;;;;;;;;;;;;;;19.09;nan;95629.22;5586856;28;1971;-65
2022/10/04 14:30:48;;;;;;;;;;;;;;;19.07;nan;95641.91;5587181;28;953;-65
2022/10/04 14:33:46;;;;;;;;;;;;;;;19.04;nan;95653.75;5583406;28;1189;-66
2022/10/04 14:36:43;;;;;;;;;;;;;;;19.02;nan;95649.63;5571493;28;1239;-66
2022/10/04 14:39:41;;;;;;;;;;;;;;;19.04;nan;95652.94;5584796;28;1305;-66
2022/10/04 14:42:37;;;;;;;;;;;;;;;19.00;nan;95653.28;5573842;28;1760;-65
2022/10/04 14:45:23;;;;;;;;;;;;;;;19.06;nan;95651.72;5569273;28;1029;-68
2022/10/04 14:48:24;;;;;;;;;;;;;;;19.52;nan;95661.25;5564296;28;1918;-65
2022/10/04 14:51:18;;;;;;;;;;;;;;;19.67;nan;95660.22;5582020;28;1076;-66
2022/10/04 14:54:04;;;;;;;;;;;;;;;19.71;nan;95666.00;5575258;28;1050;-65
2022/10/04 14:56:57;;;;;;;;;;;;;;;19.73;nan;95663.97;5559658;28;815;-65
2022/10/04 14:59:51;;;;;;;;;;;;;;;19.76;nan;95662.75;5553534;28;1306;-65
2022/10/04 15:02:52;;;;;;;;;;;;;;;19.80;nan;95674.69;5572016;28;1663;-65
2022/10/04 15:05:42;;;;;;;;;;;;;;;19.81;nan;95669.19;5578670;28;1108;-65
2022/10/04 15:08:40;;;;;;;;;;;;;;;19.83;nan;95679.63;5578243;28;1909;-65
2022/10/04 15:11:38;;;;;;;;;;;;;;;19.85;nan;95689.09;5575690;28;1292;-65
2022/10/04 15:14:35;;;;;;;;;;;;;;;19.86;nan;95692.59;5581733;28;898;-66
2022/10/04 15:17:25;;;;;;;;;;;;;;;19.88;nan;95699.38;5586038;28;1103;-65
2022/10/04 15:20:19;;;;;;;;;;;;;;;19.88;nan;95704.72;5582046;28;966;-64
2022/10/04 15:23:10;;;;;;;;;;;;;;;19.91;nan;95708.03;5582204;28;1033;-64
2022/10/04 15:25:55;;;;;;;;;;;;;;;19.92;nan;95710.53;5580611;28;2207;-64
2022/10/04 15:28:50;;;;;;;;;;;;;;;19.99;nan;95711.41;5572337;28;1918;-64
2022/10/04 15:31:37;;;;;;;;;;;;;;;20.17;nan;95713.59;5568742;28;1800;-68
2022/10/04 15:34:30;;;;;;;;;;;;;;;20.16;nan;95717.31;5569418;28;1650;-66
2022/10/04 15:37:16;;;;;;;;;;;;;;;20.25;nan;95720.66;5582598;28;1698;-66
2022/10/04 15:40:23;;;;;;;;;;;;;;;20.21;nan;95720.22;5571704;28;1741;-64
2022/10/04 15:43:19;;;;;;;;;;;;;;;20.14;nan;95730.00;5549333;28;1769;-65
2022/10/04 15:46:07;;;;;;;;;;;;;;;20.13;nan;95727.53;5563943;28;1732;-65